Time;durP1;ratioP1;P1;durP2;ratioP2;P2;SDS_P1;SDS_P2;PMS_P1;PMS_P2;Temp;Humidity;BMP_temperature;BMP_pressure;BME280_temperature;BME280_humidity;BME280_pressure;Samples;Min_cycle;Max_cycle;Signal;HPM_P1;HPM_P2
2022/01/16 00:04:05;;;;;;;26.35;15.02;;;;;;;1.17;100.00;101609.41;4932470;28;20054;-86
2022/01/16 00:04:54;;;;;;;27.70;16.00;;;;;;;1.16;100.00;101605.06;4923716;28;21248;-87
2022/01/16 00:07:20;;;;;;;32.28;17.75;;;;;;;1.16;100.00;101605.06;4916038;28;20047;-86
2022/01/16 00:09:48;;;;;;;31.52;18.95;;;;;;;1.15;100.00;101609.34;4935785;28;20465;-87
2022/01/16 00:12:18;;;;;;;27.95;16.70;;;;;;;1.11;100.00;101593.69;4937431;28;20058;-87
2022/01/16 00:14:45;;;;;;;29.65;17.60;;;;;;;1.11;100.00;101575.66;4949845;28;20162;-86
2022/01/16 00:17:11;;;;;;;27.60;16.60;;;;;;;1.10;100.00;101566.13;4948675;28;20394;-87
2022/01/16 00:19:38;;;;;;;29.42;15.90;;;;;;;1.09;100.00;101569.53;4935620;28;20138;-86
2022/01/16 00:22:12;;;;;;;24.10;14.15;;;;;;;1.12;100.00;101574.81;4940768;28;20417;-87
2022/01/16 00:24:41;;;;;;;28.40;15.68;;;;;;;1.11;100.00;101575.66;4954863;28;20049;-87
2022/01/16 00:27:09;;;;;;;24.42;14.98;;;;;;;1.08;100.00;101588.38;4932615;28;20086;-86
2022/01/16 00:29:35;;;;;;;28.63;14.38;;;;;;;1.07;100.00;101586.59;4954199;28;20042;-87
2022/01/16 00:32:02;;;;;;;23.20;12.98;;;;;;;1.03;100.00;101580.47;4951242;28;20100;-86
2022/01/16 00:34:29;;;;;;;26.05;14.85;;;;;;;1.03;100.00;101592.44;4950401;28;20451;-85
2022/01/16 00:36:56;;;;;;;28.05;15.98;;;;;;;1.02;100.00;101603.56;4928284;28;20047;-86
2022/01/16 00:39:23;;;;;;;25.90;14.70;;;;;;;1.02;100.00;101606.16;4934921;28;20036;-85
2022/01/16 00:41:57;;;;;;;23.58;14.88;;;;;;;0.97;100.00;101591.34;4943605;28;20054;-86
2022/01/16 00:44:24;;;;;;;27.20;15.27;;;;;;;0.99;100.00;101563.97;4938481;28;20158;-86
2022/01/16 00:46:51;;;;;;;26.27;14.50;;;;;;;0.99;100.00;101545.00;4940828;28;20059;-87
2022/01/16 00:49:17;;;;;;;27.02;15.23;;;;;;;0.99;100.00;101543.34;4924900;28;20968;-86
2022/01/16 00:51:44;;;;;;;28.73;15.77;;;;;;;1.00;100.00;101559.66;4953670;28;20117;-87
2022/01/16 00:54:11;;;;;;;26.52;15.00;;;;;;;1.01;100.00;101553.72;4925978;28;20145;-87
2022/01/16 00:56:40;;;;;;;31.25;16.20;;;;;;;1.04;100.00;101528.03;4934371;28;20081;-87
2022/01/16 00:59:07;;;;;;;24.58;13.13;;;;;;;1.02;100.00;101529.69;4612861;28;10000237;-86
2022/01/16 01:01:36;;;;;;;26.90;14.77;;;;;;;1.02;100.00;101521.97;4941707;28;20054;-87
2022/01/16 01:04:02;;;;;;;23.67;14.20;;;;;;;1.03;100.00;101530.56;4928930;28;20058;-87
2022/01/16 01:06:29;;;;;;;27.25;14.63;;;;;;;1.02;100.00;101524.53;4933652;28;20039;-87
2022/01/16 01:08:55;;;;;;;20.83;12.00;;;;;;;1.02;100.00;101531.38;4917832;28;20047;-87
2022/01/16 01:11:27;;;;;;;22.70;11.80;;;;;;;1.02;100.00;101500.44;4927592;28;20050;-87
2022/01/16 01:14:14;;;;;;;21.45;11.27;;;;;;;1.06;100.00;101492.03;4930836;28;20055;-87
2022/01/16 01:16:50;;;;;;;20.63;12.02;;;;;;;1.05;100.00;101490.28;4941944;28;20054;-87
2022/01/16 01:19:20;;;;;;;18.55;10.40;;;;;;;1.04;100.00;101497.09;4934686;28;20047;-87
2022/01/16 01:21:47;;;;;;;18.23;10.63;;;;;;;1.02;100.00;101491.03;4932215;28;20062;-87
2022/01/16 01:24:14;;;;;;;16.67;10.63;;;;;;;1.02;100.00;101496.19;4932974;28;20059;-87
2022/01/16 01:26:48;;;;;;;19.40;12.18;;;;;;;1.01;100.00;101501.28;4934079;28;20142;-85
2022/01/16 01:29:18;;;;;;;22.73;12.55;;;;;;;1.00;100.00;101505.53;4914098;28;20749;-85
2022/01/16 01:31:45;;;;;;;18.73;10.75;;;;;;;1.03;100.00;101505.69;4936889;28;20185;-85
2022/01/16 01:34:11;;;;;;;18.17;10.93;;;;;;;1.06;100.00;101528.13;4938780;28;20485;-86
2022/01/16 01:36:38;;;;;;;19.17;11.10;;;;;;;1.05;100.00;101518.63;4933520;28;20635;-86
2022/01/16 01:39:04;;;;;;;21.10;10.63;;;;;;;1.04;100.00;101503.97;4940312;28;20043;-85
2022/01/16 01:41:31;;;;;;;19.77;11.75;;;;;;;1.04;100.00;101496.25;4939773;28;20701;-87
2022/01/16 01:52:11;;;;;;;20.73;11.45;;;;;;;1.00;100.00;101415.28;4953974;28;20035;-87
2022/01/16 01:54:37;;;;;;;19.10;10.95;;;;;;;0.98;100.00;101388.56;4935832;28;20231;-87
2022/01/16 01:57:04;;;;;;;18.33;11.27;;;;;;;0.98;100.00;101409.19;4923577;28;20055;-87
2022/01/16 01:59:30;;;;;;;23.83;12.95;;;;;;;0.96;100.00;101434.03;4952316;28;20051;-86
2022/01/16 02:01:57;;;;;;;20.15;11.05;;;;;;;0.96;100.00;101436.59;4963195;28;20066;-87
2022/01/16 02:04:23;;;;;;;15.98;10.13;;;;;;;0.96;100.00;101439.19;4956516;28;20057;-87
2022/01/16 02:06:50;;;;;;;18.65;10.52;;;;;;;0.94;100.00;101431.38;4953358;28;20042;-86
2022/01/16 02:09:17;;;;;;;17.00;10.48;;;;;;;0.91;100.00;101438.09;4938612;28;20459;-87
2022/01/16 02:11:44;;;;;;;16.65;10.35;;;;;;;0.90;100.00;101431.19;4955530;28;20065;-87
2022/01/16 02:14:22;;;;;;;16.55;10.15;;;;;;;0.88;100.00;101445.72;4950289;28;20050;-87
2022/01/16 02:28:21;;;;;;;16.75;9.63;;;;;;;0.90;100.00;101438.91;4968520;28;20038;-87
2022/01/16 02:31:16;;;;;;;16.77;9.77;;;;;;;0.88;100.00;101446.59;4955185;28;20117;-87
2022/01/16 02:36:46;;;;;;;17.02;10.70;;;;;;;0.90;100.00;101447.53;4964406;28;20050;-86
2022/01/16 02:39:15;;;;;;;20.38;11.27;;;;;;;0.88;100.00;101444.00;4948372;28;20043;-86
2022/01/16 02:41:43;;;;;;;16.90;10.00;;;;;;;0.89;100.00;101448.34;4969081;28;20697;-86
2022/01/16 02:44:19;;;;;;;18.15;10.40;;;;;;;0.89;100.00;101440.63;4934806;28;20059;-87
2022/01/16 02:46:46;;;;;;;19.27;10.50;;;;;;;0.87;100.00;101438.78;4952145;28;20082;-86
2022/01/16 02:49:23;;;;;;;16.58;10.27;;;;;;;0.86;100.00;101437.03;4951788;28;20047;-87
2022/01/16 02:51:56;;;;;;;18.25;11.02;;;;;;;0.85;100.00;101438.72;4950619;28;20050;-86
2022/01/16 02:54:22;;;;;;;22.23;10.70;;;;;;;0.84;100.00;101426.66;4938393;28;20061;-87
2022/01/16 02:56:49;;;;;;;15.63;9.48;;;;;;;0.84;100.00;101428.34;4935889;28;20038;-86
2022/01/16 02:59:18;;;;;;;20.40;11.93;;;;;;;0.79;100.00;101418.69;4939181;28;20506;-87
2022/01/16 03:01:46;;;;;;;18.73;10.43;;;;;;;0.79;100.00;101431.59;4972030;28;20065;-87
2022/01/16 03:04:12;;;;;;;19.55;11.02;;;;;;;0.76;100.00;101433.19;4961279;28;20719;-87
2022/01/16 03:06:39;;;;;;;15.50;8.65;;;;;;;0.73;100.00;101425.28;4935691;28;20560;-87
2022/01/16 03:09:07;;;;;;;18.40;10.48;;;;;;;0.71;100.00;101429.53;4951319;28;20607;-87
2022/01/16 03:11:42;;;;;;;17.88;9.80;;;;;;;0.68;100.00;101419.97;4940016;28;20170;-87
2022/01/16 03:14:13;;;;;;;15.13;9.00;;;;;;;0.66;100.00;101416.41;4963999;28;20061;-86
2022/01/16 03:16:44;;;;;;;13.52;8.30;;;;;;;0.65;100.00;101417.22;4935677;28;20683;-86
2022/01/16 03:21:57;;;;;;;18.15;8.90;;;;;;;0.58;100.00;101410.94;4954905;28;20034;-87
2022/01/16 03:24:26;;;;;;;15.57;9.75;;;;;;;0.57;100.00;101416.03;4941235;28;20059;-87
2022/01/16 03:26:55;;;;;;;16.38;9.55;;;;;;;0.55;100.00;101410.81;4952519;28;20122;-87
2022/01/16 03:29:22;;;;;;;16.10;10.10;;;;;;;0.55;100.00;101399.59;4953400;28;20058;-86
2022/01/16 03:31:50;;;;;;;13.73;8.73;;;;;;;0.55;100.00;101415.97;4964843;28;20239;-86
2022/01/16 03:34:16;;;;;;;16.65;9.90;;;;;;;0.53;100.00;101417.56;4952192;28;20058;-86
2022/01/16 03:36:43;;;;;;;17.65;10.32;;;;;;;0.51;100.00;101405.44;4967972;28;20050;-86
2022/01/16 03:39:10;;;;;;;16.40;10.27;;;;;;;0.48;100.00;101408.75;4933088;28;20051;-86
2022/01/16 03:41:37;;;;;;;19.30;11.95;;;;;;;0.47;100.00;101406.97;4953680;28;20149;-87
2022/01/16 03:44:06;;;;;;;20.23;10.48;;;;;;;0.48;100.00;101407.09;4954232;28;20053;-86
2022/01/16 03:46:37;;;;;;;17.60;10.65;;;;;;;0.47;100.00;101405.31;4947687;28;20057;-87
2022/01/16 03:49:12;;;;;;;15.85;9.75;;;;;;;0.47;100.00;101402.72;4952879;28;20043;-87
2022/01/16 03:51:41;;;;;;;21.30;11.48;;;;;;;0.48;100.00;101404.50;4953259;28;20136;-86
2022/01/16 03:54:10;;;;;;;19.58;10.65;;;;;;;0.46;100.00;101407.81;4953924;28;20054;-87
2022/01/16 03:56:38;;;;;;;18.83;12.27;;;;;;;0.45;100.00;101406.91;4940625;28;20078;-87
2022/01/16 03:59:06;;;;;;;20.27;11.98;;;;;;;0.43;100.00;101418.88;4949807;28;20569;-87
2022/01/16 04:01:34;;;;;;;20.40;11.05;;;;;;;0.42;100.00;101408.50;4937587;28;20442;-87
2022/01/16 04:04:01;;;;;;;22.60;11.95;;;;;;;0.40;100.00;101412.69;4952015;28;20067;-87
2022/01/16 04:06:27;;;;;;;22.77;13.25;;;;;;;0.35;100.00;101415.06;4954448;28;20054;-87
2022/01/16 04:08:55;;;;;;;19.38;11.43;;;;;;;0.32;100.00;101417.50;4934475;28;20053;-87
2022/01/16 04:11:27;;;;;;;26.42;14.27;;;;;;;0.31;100.00;101432.09;4947917;28;20498;-87
2022/01/16 04:14:03;;;;;;;22.83;13.48;;;;;;;0.29;100.00;101432.81;4951862;28;20375;-87
2022/01/16 04:16:31;;;;;;;25.27;13.68;;;;;;;0.27;100.00;101429.28;4949967;28;20133;-87
2022/01/16 04:18:59;;;;;;;23.58;12.65;;;;;;;0.26;100.00;101428.41;4950566;28;20165;-86
2022/01/16 04:21:28;;;;;;;23.33;14.77;;;;;;;0.24;100.00;101440.31;4951579;28;20050;-87
2022/01/16 04:23:56;;;;;;;26.17;14.50;;;;;;;0.22;100.00;101433.34;4951182;28;20050;-86
2022/01/16 04:26:25;;;;;;;21.35;13.65;;;;;;;0.19;100.00;101441.81;4935853;28;20054;-86
2022/01/16 04:28:54;;;;;;;26.35;14.23;;;;;;;0.17;100.00;101443.44;4946237;28;20066;-85
2022/01/16 04:31:21;;;;;;;22.23;12.98;;;;;;;0.16;100.00;101442.53;4949536;28;20051;-87
2022/01/16 04:33:49;;;;;;;24.70;13.23;;;;;;;0.17;100.00;101435.72;4968427;28;20043;-87
2022/01/16 04:36:16;;;;;;;24.35;14.50;;;;;;;0.13;100.00;101447.56;4951680;28;20239;-86
2022/01/16 04:38:47;;;;;;;23.00;13.73;;;;;;;0.13;100.00;101449.25;4950421;28;20565;-86
2022/01/16 04:44:01;;;;;;;30.02;13.63;;;;;;;0.07;100.00;101457.56;4953468;28;20042;-86
2022/01/16 04:46:32;;;;;;;20.00;11.70;;;;;;;0.04;100.00;101457.44;4951336;28;20524;-86
2022/01/16 04:49:02;;;;;;;19.90;11.57;;;;;;;0.04;100.00;101460.00;4931482;28;20093;-87
2022/01/16 04:51:32;;;;;;;20.38;11.45;;;;;;;0.02;100.00;101460.75;4937245;28;20054;-87
2022/01/16 04:53:58;;;;;;;18.52;12.70;;;;;;;-0.01;100.00;101448.63;4950702;28;20637;-87
2022/01/16 04:56:25;;;;;;;17.77;12.57;;;;;;;-0.04;100.00;101445.88;4969554;28;20054;-87
2022/01/16 04:58:51;;;;;;;20.60;11.13;;;;;;;-0.05;100.00;101439.84;4936192;28;20062;-87
2022/01/16 05:01:18;;;;;;;22.55;12.30;;;;;;;-0.03;100.00;101439.94;4965857;28;20373;-86
2022/01/16 05:03:44;;;;;;;20.42;12.55;;;;;;;-0.03;100.00;101434.78;4950573;28;20082;-86
2022/01/16 05:06:11;;;;;;;21.45;11.95;;;;;;;-0.05;100.00;101419.28;4969014;28;22958;-86
2022/01/16 05:08:38;;;;;;;21.77;12.95;;;;;;;-0.05;100.00;101405.53;4949150;28;20584;-87
2022/01/16 05:11:06;;;;;;;20.33;11.65;;;;;;;-0.06;100.00;101403.75;4937094;28;20050;-87
2022/01/16 05:18:57;;;;;;;19.65;11.40;;;;;;;-0.07;100.00;101402.00;4949400;28;20046;-86
2022/01/16 05:21:25;;;;;;;17.35;9.98;;;;;;;-0.04;100.00;101394.41;4967350;28;20046;-87
2022/01/16 05:23:51;;;;;;;19.27;12.35;;;;;;;-0.04;100.00;101387.56;4952459;28;20043;-86
2022/01/16 05:26:26;;;;;;;17.02;11.30;;;;;;;0.00;100.00;101380.88;4947589;28;20068;-86
2022/01/16 05:28:53;;;;;;;16.00;9.60;;;;;;;-0.01;100.00;101395.44;4951494;28;20185;-86
2022/01/16 05:31:24;;;;;;;18.75;9.27;;;;;;;0.01;100.00;101400.63;4954332;28;21010;-85
2022/01/16 05:33:51;;;;;;;14.20;8.32;;;;;;;0.02;100.00;101402.41;4951957;28;20062;-86
2022/01/16 05:36:20;;;;;;;13.93;7.93;;;;;;;0.03;100.00;101406.75;4952644;28;20062;-86
2022/01/16 05:38:47;;;;;;;12.30;7.43;;;;;;;0.06;100.00;101414.59;4971196;28;20525;-87
2022/01/16 05:41:14;;;;;;;10.55;6.90;;;;;;;0.07;100.00;101423.22;4958122;28;20045;-87
2022/01/16 05:43:41;;;;;;;9.80;5.97;;;;;;;0.09;100.00;101419.91;4973913;28;20055;-87
2022/01/16 05:46:07;;;;;;;11.27;6.40;;;;;;;0.09;100.00;101413.88;4936045;28;20129;-87
2022/01/16 05:48:34;;;;;;;10.15;6.45;;;;;;;0.13;100.00;101418.34;4955186;28;20042;-86
2022/01/16 05:51:01;;;;;;;10.48;6.50;;;;;;;0.19;100.00;101422.91;4967191;28;20043;-86
2022/01/16 05:53:28;;;;;;;11.38;6.97;;;;;;;0.30;100.00;101426.84;4970310;28;21191;-86
2022/01/16 05:55:58;;;;;;;11.98;6.78;;;;;;;0.44;100.00;101436.09;4993309;28;20047;-89
2022/01/16 05:58:25;;;;;;;10.77;6.72;;;;;;;0.56;100.00;101435.75;4968955;28;20065;-85
2022/01/16 06:00:52;;;;;;;12.98;7.13;;;;;;;0.68;100.00;101432.84;4974574;28;20075;-84
2022/01/16 06:03:21;;;;;;;13.35;8.65;;;;;;;0.78;100.00;101428.94;4973625;28;20242;-88
2022/01/16 06:05:49;;;;;;;11.82;7.05;;;;;;;0.87;100.00;101424.19;4989062;28;20058;-90
2022/01/16 06:08:19;;;;;;;13.50;7.78;;;;;;;0.91;100.00;101422.63;4994067;28;20102;-87
2022/01/16 06:10:46;;;;;;;9.52;6.38;;;;;;;0.95;100.00;101415.09;4975422;28;20505;-87
2022/01/16 06:13:27;;;;;;;10.68;7.07;;;;;;;0.95;100.00;101411.63;4974081;28;20434;-83
2022/01/16 06:15:54;;;;;;;11.85;7.07;;;;;;;0.96;100.00;101411.69;4963561;28;20054;-85
2022/01/16 06:18:24;;;;;;;9.77;6.55;;;;;;;0.97;100.00;101400.56;4975120;28;20055;-85
2022/01/16 06:20:53;;;;;;;10.93;7.30;;;;;;;0.98;100.00;101401.47;4972931;28;20105;-84
2022/01/16 06:23:22;;;;;;;12.38;7.78;;;;;;;1.00;100.00;101410.13;4988188;28;20035;-85
2022/01/16 06:25:56;;;;;;;12.18;7.03;;;;;;;1.01;100.00;101406.75;4973590;28;20438;-87
2022/01/16 06:28:27;;;;;;;;;;;;;;;1.04;100.00;101406.00;4984257;28;20500;-87
2022/01/16 06:30:56;;;;;;;14.57;7.53;;;;;;;1.06;100.00;101400.09;4972330;28;19976;-86
2022/01/16 06:33:26;;;;;;;10.38;7.10;;;;;;;1.08;100.00;101405.28;4977330;28;20050;-85
2022/01/16 06:35:58;;;;;;;9.07;6.75;;;;;;;1.11;100.00;101405.44;4976252;28;20358;-87
2022/01/16 06:38:28;;;;;;;12.40;8.65;;;;;;;1.12;100.00;101399.44;4976633;28;20093;-85
2022/01/16 06:40:58;;;;;;;8.48;6.45;;;;;;;1.15;100.00;101409.91;4973862;28;20034;-88
2022/01/16 06:43:28;;;;;;;10.77;7.07;;;;;;;1.16;100.00;101416.81;4976237;28;20039;-84
2022/01/16 06:46:01;;;;;;;11.30;6.82;;;;;;;1.20;100.00;101415.25;4976504;28;20057;-84
2022/01/16 06:48:33;;;;;;;12.52;8.43;;;;;;;1.23;100.00;101416.25;4986590;28;20062;-84
2022/01/16 06:51:00;;;;;;;12.05;7.65;;;;;;;1.23;100.00;101418.84;4974257;28;20047;-88
2022/01/16 06:53:30;;;;;;;13.30;8.13;;;;;;;1.23;100.00;101425.72;4969508;28;20043;-85
2022/01/16 06:55:57;;;;;;;12.93;8.75;;;;;;;1.22;100.00;101432.53;4976762;28;22900;-87
2022/01/16 06:58:24;;;;;;;12.18;8.43;;;;;;;1.26;100.00;101433.56;4993644;28;20073;-87
2022/01/16 07:00:53;;;;;;;14.63;8.57;;;;;;;1.29;100.00;101434.56;4973436;28;20050;-84
2022/01/16 07:03:26;;;;;;;14.65;9.20;;;;;;;1.30;100.00;101428.59;4977150;28;20051;-84
2022/01/16 07:06:00;;;;;;;17.58;10.50;;;;;;;1.36;100.00;101430.53;4976376;28;20055;-86
2022/01/16 07:08:32;;;;;;;23.02;9.95;;;;;;;1.37;100.00;101434.91;4977434;28;20066;-85
2022/01/16 07:11:01;;;;;;;23.27;12.10;;;;;;;1.37;100.00;101437.47;4961919;28;20513;-84
2022/01/16 07:13:34;;;;;;;22.67;12.20;;;;;;;1.40;100.00;101449.63;4971880;28;20090;-85
2022/01/16 07:16:14;;;;;;;22.52;12.85;;;;;;;1.41;100.00;101457.41;4975210;28;20071;-87
2022/01/16 07:18:41;;;;;;;24.95;13.25;;;;;;;1.43;100.00;101457.47;4985874;28;20039;-85
2022/01/16 07:21:13;;;;;;;27.83;13.07;;;;;;;1.43;100.00;101455.75;4974014;28;20058;-90
2022/01/16 07:23:45;;;;;;;25.70;14.27;;;;;;;1.42;100.00;101456.59;4961794;28;20030;-86
2022/01/16 07:26:21;;;;;;;31.73;15.07;;;;;;;1.46;100.00;101455.91;4986894;28;20078;-87
2022/01/16 07:28:51;;;;;;;31.95;16.20;;;;;;;1.45;100.00;101461.88;4973077;28;20042;-86
2022/01/16 07:31:18;;;;;;;32.15;15.30;;;;;;;1.49;100.00;101455.16;4970248;28;20073;-83
2022/01/16 07:33:45;;;;;;;31.08;16.15;;;;;;;1.46;100.00;101455.91;4989470;28;20077;-83
2022/01/16 07:36:15;;;;;;;28.70;15.25;;;;;;;1.46;100.00;101458.50;4976976;28;20078;-87
2022/01/16 07:38:46;;;;;;;31.40;15.98;;;;;;;1.48;100.00;101461.13;4968250;28;20055;-88
2022/01/16 07:41:13;;;;;;;32.72;15.95;;;;;;;1.51;100.00;101463.81;4951850;28;20085;-90
2022/01/16 07:43:40;;;;;;;40.70;17.33;;;;;;;1.57;100.00;101458.91;4966924;28;20050;-85
2022/01/16 07:46:10;;;;;;;31.08;15.75;;;;;;;1.57;100.00;101452.88;4961619;28;20043;-88
2022/01/16 07:48:38;;;;;;;42.45;18.33;;;;;;;1.56;100.00;101436.50;4968857;28;20042;-86
2022/01/16 07:51:11;;;;;;;36.22;18.15;;;;;;;1.50;100.00;101451.75;4981997;28;20085;-86
2022/01/16 07:53:38;;;;;;;43.65;21.58;;;;;;;1.53;100.00;101459.63;4970988;28;20053;-85
2022/01/16 07:56:15;;;;;;;38.38;17.75;;;;;;;1.49;100.00;101468.06;4966327;28;20496;-83
2022/01/16 07:58:44;;;;;;;38.35;20.40;;;;;;;1.53;100.00;101443.25;4971034;28;20119;-86
2022/01/16 08:01:12;;;;;;;40.85;18.33;;;;;;;1.52;100.00;101455.28;4968661;28;20939;-86
2022/01/16 08:03:44;;;;;;;40.90;19.83;;;;;;;1.51;100.00;101442.31;4968537;28;20065;-85
2022/01/16 08:06:12;;;;;;;39.10;19.48;;;;;;;1.49;100.00;101437.97;4969098;28;20051;-84
2022/01/16 08:08:40;;;;;;;43.25;19.10;;;;;;;1.50;100.00;101449.19;4972589;28;20070;-85
2022/01/16 08:11:09;;;;;;;42.53;18.05;;;;;;;1.54;100.00;101461.38;4970254;28;20058;-84
2022/01/16 08:13:40;;;;;;;38.95;18.23;;;;;;;1.57;100.00;101452.88;4949042;28;20049;-87
2022/01/16 08:16:08;;;;;;;44.40;20.02;;;;;;;1.55;100.00;101446.78;4960215;28;20113;-86
2022/01/16 08:18:36;;;;;;;42.00;20.02;;;;;;;1.52;100.00;101444.94;4964944;28;20057;-87
2022/01/16 08:21:04;;;;;;;42.03;18.67;;;;;;;1.55;100.00;101439.94;4961261;28;20131;-86
2022/01/16 08:23:32;;;;;;;36.88;18.23;;;;;;;1.58;100.00;101441.75;4966576;28;20046;-86
2022/01/16 08:25:59;;;;;;;43.28;20.92;;;;;;;1.60;100.00;101433.25;4978606;28;20464;-84
2022/01/16 08:28:26;;;;;;;41.80;18.65;;;;;;;1.63;100.00;101435.94;4961768;28;20050;-84
2022/01/16 08:30:52;;;;;;;41.00;19.63;;;;;;;1.63;100.00;101445.38;4959965;28;20067;-85
2022/01/16 08:33:19;;;;;;;40.70;18.95;;;;;;;1.67;100.00;101443.81;4974215;28;20054;-90
2022/01/16 08:35:46;;;;;;;34.28;17.67;;;;;;;1.65;100.00;101438.59;4965576;28;20111;-86
2022/01/16 08:38:14;;;;;;;39.70;20.30;;;;;;;1.64;100.00;101442.88;4965167;28;22329;-83
2022/01/16 08:40:41;;;;;;;40.15;20.35;;;;;;;1.67;100.00;101438.63;4961061;28;20047;-87
2022/01/16 08:43:10;;;;;;;40.60;19.60;;;;;;;1.68;100.00;101432.66;4967296;28;20065;-88
2022/01/16 08:45:42;;;;;;;48.50;22.55;;;;;;;1.70;100.00;101433.63;4962572;28;20047;-86
2022/01/16 08:48:20;;;;;;;48.08;22.23;;;;;;;1.75;100.00;101437.28;4965282;28;20058;-87
2022/01/16 08:50:47;;;;;;;39.85;21.38;;;;;;;1.78;100.00;101438.25;4968654;28;20039;-89
2022/01/16 08:53:23;;;;;;;48.85;21.40;;;;;;;1.79;100.00;101426.25;4965847;28;20481;-84
2022/01/16 08:55:59;;;;;;;46.55;21.63;;;;;;;1.81;100.00;101432.31;4972239;28;20051;-85
2022/01/16 08:58:31;;;;;;;42.95;21.75;;;;;;;1.82;100.00;101426.34;4965699;28;20043;-83
2022/01/16 09:01:02;;;;;;;43.80;19.63;;;;;;;1.86;100.00;101428.22;4979634;28;20081;-87
2022/01/16 09:03:47;;;;;;;43.80;23.10;;;;;;;1.86;100.00;101425.63;4989555;28;20127;-87
2022/01/16 09:06:19;;;;;;;41.47;21.58;;;;;;;1.91;100.00;101431.88;4969233;28;20118;-84
2022/01/16 09:08:51;;;;;;;44.83;21.67;;;;;;;1.91;100.00;101429.28;4971475;28;20041;-84
2022/01/16 09:15:20;;;;;;;52.17;21.50;;;;;;;1.99;100.00;101439.91;4977195;28;20027;-85
2022/01/16 09:18:16;;;;;;;48.97;23.77;;;;;;;2.00;100.00;101427.91;4969897;28;21077;-84
2022/01/16 09:21:29;;;;;;;44.25;21.00;;;;;;;2.05;100.00;101428.97;4972668;28;20367;-84
2022/01/16 09:36:33;;;;;;;39.92;20.90;;;;;;;2.13;100.00;101422.38;4952887;28;20189;-90
2022/01/16 09:39:14;;;;;;;40.90;21.52;;;;;;;2.13;100.00;101424.97;4953099;28;20051;-85
2022/01/16 09:41:48;;;;;;;48.97;23.73;;;;;;;2.15;100.00;101439.69;4938213;28;20046;-87
2022/01/16 09:50:56;;;;;;;49.80;24.63;;;;;;;2.25;100.00;101452.94;4964651;28;20053;-91
2022/01/16 09:53:29;;;;;;;45.67;23.88;;;;;;;2.30;100.00;101451.44;4967827;28;20105;-87
2022/01/16 09:55:58;;;;;;;49.63;23.85;;;;;;;2.31;100.00;101463.53;4956908;28;20044;-86
2022/01/16 09:58:34;;;;;;;43.80;21.73;;;;;;;2.35;100.00;101451.56;4959679;28;20044;-84
2022/01/16 10:01:16;;;;;;;37.47;20.92;;;;;;;2.34;100.00;101453.28;4972845;28;20047;-85
2022/01/16 10:29:27;;;;;;;48.13;23.42;;;;;;;2.24;100.00;101466.69;5009010;28;20054;-84
2022/01/16 10:32:20;;;;;;;54.30;24.58;;;;;;;2.24;100.00;101467.59;5006859;28;20069;-86
2022/01/16 10:34:55;;;;;;;49.40;23.35;;;;;;;2.24;100.00;101464.09;4968959;28;20056;-85
2022/01/16 10:37:36;;;;;;;47.65;23.10;;;;;;;2.25;100.00;101465.88;4987755;28;20584;-87
2022/01/16 10:40:16;;;;;;;49.13;23.10;;;;;;;2.23;100.00;101460.66;4967006;28;20046;-87
2022/01/16 10:42:52;;;;;;;47.38;23.60;;;;;;;2.23;100.00;101464.91;5000748;28;20058;-86
2022/01/16 10:45:26;;;;;;;39.47;21.05;;;;;;;2.26;100.00;101454.72;4969225;28;20101;-87
2022/01/16 10:48:08;;;;;;;43.10;21.73;;;;;;;2.31;100.00;101451.47;4992408;28;20082;-87
2022/01/16 10:50:48;;;;;;;45.20;21.20;;;;;;;2.31;100.00;101443.72;4982768;28;20042;-87
2022/01/16 10:53:27;;;;;;;44.83;21.70;;;;;;;2.35;100.00;101451.56;4990037;28;20046;-88
2022/01/16 10:56:11;;;;;;;41.58;21.42;;;;;;;2.38;100.00;101447.41;4991457;28;20039;-86
2022/01/16 10:59:02;;;;;;;40.75;20.63;;;;;;;2.42;100.00;101446.69;4965409;28;20116;-86
2022/01/16 11:01:53;;;;;;;;;;;;;;;;;;;;;
2022/01/16 11:04:40;;;;;;;40.42;20.63;;;;;;;2.41;100.00;101446.66;4979469;28;20052;-84
2022/01/16 11:07:31;;;;;;;44.50;19.90;;;;;;;2.46;100.00;101452.88;4978117;28;20042;-87
2022/01/16 11:10:56;;;;;;;42.10;21.50;;;;;;;2.43;100.00;101456.22;4971489;28;20131;-86
2022/01/16 11:13:40;;;;;;;;;;;;;;;;;;;;;
2022/01/16 11:16:15;;;;;;;48.72;22.75;;;;;;;2.48;100.00;101454.69;4974259;28;20090;-87
2022/01/16 11:18:48;;;;;;;41.40;21.65;;;;;;;2.51;100.00;101442.72;4963563;28;20050;-86
2022/01/16 11:21:20;;;;;;;43.10;20.50;;;;;;;2.50;100.00;101444.41;4974242;28;21098;-86
2022/01/16 11:24:11;;;;;;;48.50;21.85;;;;;;;2.56;100.00;101433.44;4955505;28;20101;-86
2022/01/16 11:27:02;;;;;;;;;;;;;;;;;;;;;
2022/01/16 11:29:34;;;;;;;46.33;22.33;;;;;;;2.61;100.00;101445.69;4965866;28;20054;-86
2022/01/16 11:32:11;;;;;;;43.28;22.45;;;;;;;2.65;100.00;101452.72;4950850;28;20054;-86
2022/01/16 11:34:50;;;;;;;39.55;20.23;;;;;;;2.70;100.00;101444.25;4960916;28;20588;-85
2022/01/16 11:37:39;;;;;;;;;;;;;;;;;;;;;
2022/01/16 11:40:27;;;;;;;48.33;22.52;;;;;;;2.78;100.00;101448.88;4959535;28;20074;-86
2022/01/16 11:43:37;;;;;;;48.40;23.92;;;;;;;2.77;100.00;101459.16;4970327;28;20427;-86
2022/01/16 11:46:32;;;;;;;41.67;21.80;;;;;;;2.81;100.00;101448.09;4974740;28;20112;-85
2022/01/16 11:49:19;;;;;;;43.97;22.65;;;;;;;2.86;100.00;101456.03;4954138;28;20057;-85
2022/01/16 11:52:09;;;;;;;;;;;;;;;;;;;;;
2022/01/16 11:55:03;;;;;;;;;;;;;;;;;;;;;
2022/01/16 11:57:37;;;;;;;39.92;20.88;;;;;;;3.06;100.00;101441.22;4970349;28;20046;-87
2022/01/16 12:00:16;;;;;;;52.03;23.85;;;;;;;3.09;100.00;101439.59;4973259;28;20046;-85
2022/01/16 12:02:48;;;;;;;42.60;23.27;;;;;;;3.13;100.00;101438.03;4969422;28;20501;-86
2022/01/16 12:05:25;;;;;;;44.35;22.42;;;;;;;3.18;100.00;101436.47;4977423;28;20053;-87
2022/01/16 12:08:07;;;;;;;47.05;22.38;;;;;;;3.25;100.00;101440.13;4970807;28;20072;-88
2022/01/16 12:10:54;;;;;;;45.92;23.25;;;;;;;3.33;100.00;101433.50;4962480;28;20101;-88
2022/01/16 12:14:03;;;;;;;;;;;;;;;;;;;;;
2022/01/16 12:16:54;;;;;;;54.05;25.00;;;;;;;3.34;100.00;101424.00;4978961;28;20049;-85
2022/01/16 12:19:41;;;;;;;49.30;24.17;;;;;;;3.35;100.00;101425.78;4938939;28;20065;-85
2022/01/16 12:22:09;;;;;;;48.60;25.88;;;;;;;3.37;100.00;101434.50;4959450;28;20058;-87
2022/01/16 12:24:47;;;;;;;52.85;25.15;;;;;;;3.40;100.00;101429.41;4969892;28;20055;-86
2022/01/16 12:27:53;;;;;;;46.58;25.13;;;;;;;3.43;100.00;101417.44;4981445;28;20588;-85
2022/01/16 12:30:43;;;;;;;51.72;27.70;;;;;;;3.49;100.00;101432.28;4972217;28;20523;-87
2022/01/16 12:33:31;;;;;;;54.03;25.48;;;;;;;3.51;100.00;101430.63;4986386;28;20097;-87
2022/01/16 12:36:08;;;;;;;58.38;26.27;;;;;;;3.54;100.00;101435.91;4959928;28;20069;-87
2022/01/16 12:38:53;;;;;;;57.40;27.00;;;;;;;3.55;100.00;101432.50;4989373;28;20049;-85
2022/01/16 12:41:27;;;;;;;49.70;25.58;;;;;;;3.58;100.00;101421.34;4970512;28;20811;-88
2022/01/16 12:44:03;;;;;;;45.50;25.77;;;;;;;3.63;100.00;101422.38;4991278;28;20125;-86
2022/01/16 12:46:46;;;;;;;50.75;28.48;;;;;;;3.66;100.00;101421.59;4967199;28;20077;-86
2022/01/16 12:49:18;;;;;;;49.95;26.52;;;;;;;3.71;100.00;101422.63;4985578;28;20049;-86
2022/01/16 12:51:48;;;;;;;55.65;25.27;;;;;;;3.77;100.00;101423.69;4950710;28;20062;-87
2022/01/16 12:54:50;;;;;;;51.47;28.38;;;;;;;3.82;100.00;101423.84;4971518;28;20098;-87
2022/01/16 12:57:28;;;;;;;52.08;25.13;;;;;;;3.84;100.00;101422.19;4980666;28;20049;-87
2022/01/16 13:00:02;;;;;;;53.80;28.83;;;;;;;3.86;100.00;101420.53;4970250;28;20050;-87
2022/01/16 13:02:30;;;;;;;55.45;26.50;;;;;;;3.90;100.00;101419.78;4973245;28;20052;-86
2022/01/16 13:04:59;;;;;;;55.20;26.58;;;;;;;3.96;100.00;101412.22;4953993;28;20077;-88
2022/01/16 13:07:27;;;;;;;53.50;26.45;;;;;;;4.00;100.00;101417.47;4957646;28;20034;-85